Time;durP1;ratioP1;P1;durP2;ratioP2;P2;SDS_P1;SDS_P2;PMS_P1;PMS_P2;Temp;Humidity;BMP_temperature;BMP_pressure;BME280_temperature;BME280_humidity;BME280_pressure;Samples;Min_cycle;Max_cycle;Signal;HPM_P1;HPM_P2
2023/04/19 00:00:22;;;;;;;27.05;18.08;;;;;;;;;;2104633;28;20036;-72
2023/04/19 00:01:43;;;;;;;27.80;17.35;;;;;;;;;;2110615;28;20066;-72
2023/04/19 00:03:07;;;;;;;26.15;17.02;;;;;;;;;;2098461;28;20460;-71
2023/04/19 00:04:28;;;;;;;29.88;19.00;;;;;;;;;;2102933;28;20116;-71
2023/04/19 00:05:53;;;;;;;30.35;18.55;;;;;;;;;;2095675;28;20028;-72
2023/04/19 00:07:15;;;;;;;30.05;17.27;;;;;;;;;;2109122;28;20027;-72
2023/04/19 00:08:36;;;;;;;35.65;18.30;;;;;;;;;;2102150;28;20143;-72
2023/04/19 00:09:57;;;;;;;25.70;15.30;;;;;;;;;;2105929;28;20039;-72
2023/04/19 00:11:18;;;;;;;26.13;18.52;;;;;;;;;;2105933;28;20054;-72
2023/04/19 00:12:39;;;;;;;31.90;17.92;;;;;;;;;;2105724;28;20032;-72
2023/04/19 00:14:00;;;;;;;29.60;18.08;;;;;;;;;;2110167;28;20095;-71
2023/04/19 00:15:21;;;;;;;28.20;17.25;;;;;;;;;;2101014;28;20800;-72
2023/04/19 00:16:41;;;;;;;24.92;17.10;;;;;;;;;;2107164;28;20043;-72
2023/04/19 00:18:02;;;;;;;35.85;18.02;;;;;;;;;;2110389;28;20034;-72
2023/04/19 00:19:23;;;;;;;26.35;16.38;;;;;;;;;;2103027;28;20050;-72
2023/04/19 00:20:44;;;;;;;27.05;16.10;;;;;;;;;;2109351;28;20540;-72
2023/04/19 00:22:05;;;;;;;29.65;18.00;;;;;;;;;;2112429;28;20039;-72
2023/04/19 00:23:26;;;;;;;27.55;17.48;;;;;;;;;;2111042;28;20518;-72
2023/04/19 00:24:47;;;;;;;26.40;16.70;;;;;;;;;;2101482;28;20047;-72
2023/04/19 00:26:10;;;;;;;25.65;17.98;;;;;;;;;;2101132;28;20033;-72
2023/04/19 00:27:31;;;;;;;25.80;18.30;;;;;;;;;;2107039;28;20039;-72
2023/04/19 00:28:52;;;;;;;28.70;17.85;;;;;;;;;;2109112;28;20040;-72
2023/04/19 00:30:12;;;;;;;28.65;17.73;;;;;;;;;;2100989;28;20032;-72
2023/04/19 00:31:33;;;;;;;28.73;17.40;;;;;;;;;;2099051;28;20024;-72
2023/04/19 00:32:54;;;;;;;31.20;17.95;;;;;;;;;;2102969;28;20035;-72
2023/04/19 00:34:15;;;;;;;25.90;16.75;;;;;;;;;;2109040;28;20053;-72
2023/04/19 00:35:36;;;;;;;27.90;17.02;;;;;;;;;;2109180;28;20044;-72
2023/04/19 00:36:57;;;;;;;29.02;17.65;;;;;;;;;;2109321;28;20084;-72
2023/04/19 00:38:18;;;;;;;32.58;17.70;;;;;;;;;;2105306;28;20130;-71
2023/04/19 00:39:39;;;;;;;25.25;16.42;;;;;;;;;;2107632;28;20048;-72
2023/04/19 00:41:00;;;;;;;26.60;18.42;;;;;;;;;;2102801;28;20028;-71
2023/04/19 00:42:20;;;;;;;30.27;17.60;;;;;;;;;;2108399;28;20027;-72
2023/04/19 00:43:41;;;;;;;24.88;17.10;;;;;;;;;;2103536;28;20020;-72
2023/04/19 00:45:02;;;;;;;27.13;16.02;;;;;;;;;;2099012;28;20134;-72
2023/04/19 00:46:24;;;;;;;30.95;17.38;;;;;;;;;;2100903;28;20032;-72
2023/04/19 00:47:44;;;;;;;32.55;19.65;;;;;;;;;;2103108;28;20059;-72
2023/04/19 00:49:06;;;;;;;30.10;18.02;;;;;;;;;;2103217;28;20389;-72
2023/04/19 00:50:27;;;;;;;29.35;18.17;;;;;;;;;;2099371;28;20024;-72
2023/04/19 00:51:49;;;;;;;28.45;16.98;;;;;;;;;;2102870;28;20028;-72
2023/04/19 00:53:10;;;;;;;31.58;18.38;;;;;;;;;;2108911;28;20050;-72
2023/04/19 00:54:31;;;;;;;28.77;17.63;;;;;;;;;;2097946;28;20460;-72
2023/04/19 00:55:54;;;;;;;28.58;16.92;;;;;;;;;;2108665;28;20108;-72
2023/04/19 00:57:15;;;;;;;31.02;19.25;;;;;;;;;;2107464;28;20028;-72
2023/04/19 00:58:37;;;;;;;29.50;16.33;;;;;;;;;;2106335;28;20036;-72
2023/04/19 00:59:58;;;;;;;27.45;17.00;;;;;;;;;;2100949;28;20043;-72
2023/04/19 01:01:19;;;;;;;26.73;17.67;;;;;;;;;;2105620;28;20038;-71
2023/04/19 01:02:40;;;;;;;28.42;17.60;;;;;;;;;;2104040;28;20025;-71
2023/04/19 03:34:38;;;;;;;34.63;17.05;;;;;;;;;;2038559;29;20440;-94
2023/04/19 03:36:07;;;;;;;31.55;19.05;;;;;;;;;;2036316;29;20039;-93
2023/04/19 03:37:30;;;;;;;32.17;20.77;;;;;;;;;;2023103;29;20043;-93
2023/04/19 03:39:04;;;;;;;;;;;;;;;;;;;;;
2023/04/19 03:40:54;;;;;;;25.83;15.27;;;;;;;;;;2030842;29;20044;-93
2023/04/19 03:42:31;;;;;;;30.67;16.58;;;;;;;;;;2033564;29;20083;-93
2023/04/19 03:44:02;;;;;;;;;;;;;;;;;;;;;
2023/04/19 03:45:27;;;;;;;29.40;17.55;;;;;;;;;;2030079;29;20032;-94
2023/04/19 03:47:00;;;;;;;29.88;17.70;;;;;;;;;;2025459;29;20039;-93
2023/04/19 03:48:24;;;;;;;27.38;17.02;;;;;;;;;;2021190;29;20053;-93
2023/04/19 03:49:48;;;;;;;29.27;15.48;;;;;;;;;;2025068;29;20040;-94
2023/04/19 03:51:22;;;;;;;;;;;;;;;;;;;;;
2023/04/19 03:52:43;;;;;;;38.45;18.13;;;;;;;;;;2031006;29;20044;-93
2023/04/19 03:54:06;;;;;;;29.02;16.95;;;;;;;;;;2023941;29;20025;-94
2023/04/19 03:55:46;;;;;;;;;;;;;;;;;;;;;
2023/04/19 03:57:18;;;;;;;24.88;14.90;;;;;;;;;;2032642;29;20061;-94
2023/04/19 03:58:42;;;;;;;28.75;16.83;;;;;;;;;;2024336;29;20116;-93
2023/04/19 04:00:07;;;;;;;26.58;15.60;;;;;;;;;;2039665;29;20043;-94
2023/04/19 04:02:04;;;;;;;;;;;;;;;;;;;;;
2023/04/19 04:03:45;;;;;;;;;;;;;;;;;;;;;
2023/04/19 04:07:17;;;;;;;23.88;15.18;;;;;;;;;;2024693;29;20108;-93
2023/04/19 04:08:43;;;;;;;25.55;15.73;;;;;;;;;;2007555;29;20041;-94
2023/04/19 04:10:07;;;;;;;31.73;19.83;;;;;;;;;;2023470;29;20079;-93
2023/04/19 04:11:33;;;;;;;23.38;14.70;;;;;;;;;;2017487;29;20037;-93
2023/04/19 04:12:56;;;;;;;30.13;16.25;;;;;;;;;;2010896;29;20037;-94
2023/04/19 04:14:17;;;;;;;23.27;15.63;;;;;;;;;;2018221;29;20036;-93
2023/04/19 04:15:38;;;;;;;26.90;16.17;;;;;;;;;;2014990;29;20204;-94
2023/04/19 04:16:59;;;;;;;31.40;16.10;;;;;;;;;;2012649;29;20108;-94
2023/04/19 04:18:23;;;;;;;23.65;15.75;;;;;;;;;;1996550;29;20058;-93
2023/04/19 04:19:46;;;;;;;28.48;14.95;;;;;;;;;;2011886;29;20137;-93
2023/04/19 04:21:08;;;;;;;28.13;15.52;;;;;;;;;;2015043;29;20037;-93
2023/04/19 04:22:29;;;;;;;21.55;14.73;;;;;;;;;;2009374;29;20049;-93
2023/04/19 04:23:52;;;;;;;27.02;14.80;;;;;;;;;;2021708;29;20690;-93
2023/04/19 04:25:15;;;;;;;35.25;19.65;;;;;;;;;;2023824;29;20222;-94
2023/04/19 04:26:38;;;;;;;23.63;14.70;;;;;;;;;;2019661;29;20048;-94
2023/04/19 04:27:59;;;;;;;50.42;23.13;;;;;;;;;;2005107;29;20032;-93
2023/04/19 04:29:20;;;;;;;28.30;16.80;;;;;;;;;;2012082;29;20033;-93
2023/04/19 04:30:41;;;;;;;26.27;15.38;;;;;;;;;;2013977;29;20433;-92
2023/04/19 04:32:03;;;;;;;29.35;15.20;;;;;;;;;;2019145;29;20100;-92
2023/04/19 04:33:25;;;;;;;20.85;13.32;;;;;;;;;;2015097;29;20037;-93
2023/04/19 04:34:46;;;;;;;24.70;14.02;;;;;;;;;;2046024;28;20035;-93
2023/04/19 04:36:10;;;;;;;24.52;13.73;;;;;;;;;;2040760;28;20413;-92
2023/04/19 04:37:34;;;;;;;27.67;13.93;;;;;;;;;;2039330;29;20038;-92
2023/04/19 04:38:56;;;;;;;23.77;14.55;;;;;;;;;;2036279;28;20115;-92
2023/04/19 04:40:17;;;;;;;20.52;13.13;;;;;;;;;;2039981;29;20487;-93
2023/04/19 04:41:41;;;;;;;23.55;13.60;;;;;;;;;;2046613;29;20027;-92
2023/04/19 04:43:20;;;;;;;31.30;14.45;;;;;;;;;;2039266;29;20416;-93
2023/04/19 04:44:41;;;;;;;26.70;14.95;;;;;;;;;;2042091;29;20090;-93
2023/04/19 04:46:10;;;;;;;22.63;13.82;;;;;;;;;;2030194;29;20413;-91
2023/04/19 04:47:31;;;;;;;25.17;15.45;;;;;;;;;;2038911;29;20383;-92
2023/04/19 04:48:52;;;;;;;21.48;13.82;;;;;;;;;;2027635;28;20038;-93
2023/04/19 04:50:13;;;;;;;24.80;15.48;;;;;;;;;;2037678;29;20090;-92
2023/04/19 04:51:36;;;;;;;25.10;14.30;;;;;;;;;;2042295;29;20039;-93
2023/04/19 04:52:57;;;;;;;24.38;14.90;;;;;;;;;;2037364;29;20470;-92
2023/04/19 04:54:18;;;;;;;30.08;15.80;;;;;;;;;;2037266;29;20032;-93
2023/04/19 04:55:43;;;;;;;23.40;13.48;;;;;;;;;;2040857;29;20020;-92
2023/04/19 04:57:04;;;;;;;22.95;15.25;;;;;;;;;;2041689;29;20035;-93
2023/04/19 04:58:27;;;;;;;51.05;23.27;;;;;;;;;;2024487;28;20045;-93
2023/04/19 04:59:48;;;;;;;27.23;15.07;;;;;;;;;;2033763;29;20037;-93
2023/04/19 05:01:09;;;;;;;28.23;14.57;;;;;;;;;;2033264;29;20034;-93
2023/04/19 05:02:31;;;;;;;28.27;15.45;;;;;;;;;;2039703;29;20032;-93
2023/04/19 05:03:52;;;;;;;27.30;13.45;;;;;;;;;;2035800;29;20083;-93
2023/04/19 05:05:13;;;;;;;25.98;14.57;;;;;;;;;;2037816;29;20100;-93
2023/04/19 05:06:37;;;;;;;23.25;13.10;;;;;;;;;;2034185;29;20086;-92
2023/04/19 05:07:58;;;;;;;26.92;15.90;;;;;;;;;;2033662;29;20036;-92
2023/04/19 05:09:24;;;;;;;26.02;15.13;;;;;;;;;;2028628;29;20040;-93
2023/04/19 05:10:46;;;;;;;23.23;13.80;;;;;;;;;;2037259;29;20036;-92
2023/04/19 05:12:09;;;;;;;21.70;13.80;;;;;;;;;;2038976;29;20060;-92
2023/04/19 05:13:30;;;;;;;19.80;13.25;;;;;;;;;;2036799;29;20024;-93
2023/04/19 05:14:52;;;;;;;27.48;14.98;;;;;;;;;;2041476;29;20028;-93
2023/04/19 05:16:15;;;;;;;30.75;16.60;;;;;;;;;;2036724;29;20494;-93
2023/04/19 05:17:36;;;;;;;19.67;12.73;;;;;;;;;;2038944;29;20044;-93
2023/04/19 05:18:57;;;;;;;24.90;13.82;;;;;;;;;;2037796;29;20031;-92
2023/04/19 05:20:28;;;;;;;28.30;14.40;;;;;;;;;;2045601;29;20039;-92
2023/04/19 05:21:54;;;;;;;27.00;14.30;;;;;;;;;;2038786;29;20040;-92
2023/04/19 05:23:15;;;;;;;22.02;12.38;;;;;;;;;;2038598;29;20079;-92
2023/04/19 05:24:36;;;;;;;24.27;13.77;;;;;;;;;;2035609;29;20396;-92
2023/04/19 05:25:59;;;;;;;24.83;14.13;;;;;;;;;;2037431;29;20142;-92
2023/04/19 05:27:20;;;;;;;23.33;14.02;;;;;;;;;;2039671;29;20040;-92
2023/04/19 05:28:51;;;;;;;31.55;16.67;;;;;;;;;;2030860;28;20463;-92
2023/04/19 05:30:12;;;;;;;25.60;14.38;;;;;;;;;;2039721;29;20035;-93
2023/04/19 05:31:33;;;;;;;26.40;14.27;;;;;;;;;;2037300;29;20024;-92
2023/04/19 05:32:57;;;;;;;28.45;15.05;;;;;;;;;;2037561;29;20027;-93
2023/04/19 05:34:23;;;;;;;22.67;13.73;;;;;;;;;;2037594;29;20031;-93
2023/04/19 05:35:44;;;;;;;28.52;14.90;;;;;;;;;;2044711;29;20115;-92
2023/04/19 05:37:05;;;;;;;21.05;13.70;;;;;;;;;;2036930;29;20023;-92
2023/04/19 05:38:26;;;;;;;29.83;15.52;;;;;;;;;;2039521;28;20028;-93
2023/04/19 05:39:47;;;;;;;23.88;13.38;;;;;;;;;;2038133;29;20035;-93
2023/04/19 05:41:11;;;;;;;22.88;14.13;;;;;;;;;;2040517;29;20055;-92
2023/04/19 05:42:31;;;;;;;26.55;14.68;;;;;;;;;;2039428;29;20027;-93
2023/04/19 05:43:52;;;;;;;21.15;13.68;;;;;;;;;;2042985;29;20186;-93
2023/04/19 05:45:14;;;;;;;26.15;13.63;;;;;;;;;;2038798;29;20034;-92
2023/04/19 05:46:35;;;;;;;22.83;13.20;;;;;;;;;;2040055;29;20046;-92
2023/04/19 05:47:58;;;;;;;20.63;12.75;;;;;;;;;;2041501;29;20036;-92
2023/04/19 05:49:22;;;;;;;22.08;13.48;;;;;;;;;;2038409;29;20375;-93
2023/04/19 05:50:43;;;;;;;18.08;13.02;;;;;;;;;;2031683;29;20527;-92
2023/04/19 05:52:04;;;;;;;18.88;12.00;;;;;;;;;;2033782;29;20036;-93
2023/04/19 05:53:25;;;;;;;16.90;11.63;;;;;;;;;;2044440;29;20390;-92
2023/04/19 05:54:46;;;;;;;20.23;12.70;;;;;;;;;;2042275;29;20040;-92
2023/04/19 05:56:07;;;;;;;19.83;12.00;;;;;;;;;;2031784;29;20044;-93
2023/04/19 05:57:28;;;;;;;29.83;14.40;;;;;;;;;;2039629;29;20036;-93
2023/04/19 05:58:49;;;;;;;24.67;13.70;;;;;;;;;;2038930;29;20043;-93
2023/04/19 06:00:10;;;;;;;23.45;14.13;;;;;;;;;;2041509;29;20035;-93
2023/04/19 06:01:31;;;;;;;17.20;11.60;;;;;;;;;;2040623;29;20122;-92
2023/04/19 06:02:52;;;;;;;20.10;12.60;;;;;;;;;;2032432;29;20127;-93
2023/04/19 06:04:13;;;;;;;20.52;13.05;;;;;;;;;;2043853;29;20019;-93
2023/04/19 06:05:34;;;;;;;20.30;12.13;;;;;;;;;;2038626;29;20115;-93
2023/04/19 06:06:55;;;;;;;18.25;11.57;;;;;;;;;;2039938;29;20035;-93
2023/04/19 06:08:17;;;;;;;17.20;11.57;;;;;;;;;;2041166;29;20039;-94
2023/04/19 06:09:41;;;;;;;17.58;11.38;;;;;;;;;;2035755;29;20111;-93
2023/04/19 06:11:01;;;;;;;23.75;12.70;;;;;;;;;;2033335;29;20032;-94
2023/04/19 06:12:25;;;;;;;21.05;12.27;;;;;;;;;;2040548;29;20031;-94
2023/04/19 06:14:15;;;;;;;18.52;12.07;;;;;;;;;;2041196;29;20063;-95
2023/04/19 06:15:38;;;;;;;21.67;12.65;;;;;;;;;;2042292;29;20150;-93
2023/04/19 06:17:02;;;;;;;20.13;11.90;;;;;;;;;;2040153;29;20027;-93
2023/04/19 06:18:23;;;;;;;19.88;12.10;;;;;;;;;;2039727;29;20028;-94
2023/04/19 06:19:56;;;;;;;19.92;12.43;;;;;;;;;;2039981;29;20047;-95
2023/04/19 06:21:20;;;;;;;17.30;11.65;;;;;;;;;;2040610;29;20058;-95
2023/04/19 06:22:43;;;;;;;22.95;12.00;;;;;;;;;;2041354;28;20024;-95
2023/04/19 06:24:05;;;;;;;21.42;12.60;;;;;;;;;;2039650;29;20050;-95
2023/04/19 06:25:26;;;;;;;19.13;10.90;;;;;;;;;;2039110;29;20032;-94
2023/04/19 06:26:50;;;;;;;23.48;11.85;;;;;;;;;;2039241;29;20087;-94
2023/04/19 06:28:11;;;;;;;24.02;12.52;;;;;;;;;;2037254;29;20570;-94
2023/04/19 06:29:32;;;;;;;21.35;12.48;;;;;;;;;;2026338;29;20040;-94
2023/04/19 06:30:53;;;;;;;19.67;12.40;;;;;;;;;;2039627;29;20160;-93
2023/04/19 06:32:14;;;;;;;24.30;13.63;;;;;;;;;;2036787;29;20100;-93
2023/04/19 06:33:35;;;;;;;24.13;13.25;;;;;;;;;;2037359;29;20313;-94
2023/04/19 06:34:59;;;;;;;23.73;12.20;;;;;;;;;;2039115;29;20042;-95
2023/04/19 06:36:20;;;;;;;22.40;11.45;;;;;;;;;;2036428;29;20038;-94
2023/04/19 06:37:43;;;;;;;18.90;11.77;;;;;;;;;;2034741;29;20039;-95
2023/04/19 06:39:04;;;;;;;35.47;16.17;;;;;;;;;;2036190;29;20155;-94
2023/04/19 06:40:28;;;;;;;19.70;12.18;;;;;;;;;;2038634;29;20039;-94
2023/04/19 06:41:49;;;;;;;20.27;12.10;;;;;;;;;;2042145;29;20043;-93
2023/04/19 06:43:12;;;;;;;17.35;11.88;;;;;;;;;;2040823;29;20032;-94
2023/04/19 06:44:35;;;;;;;16.85;12.18;;;;;;;;;;2040256;29;20124;-95
2023/04/19 06:45:57;;;;;;;17.65;11.93;;;;;;;;;;2042786;29;20052;-94
2023/04/19 06:47:18;;;;;;;19.88;11.40;;;;;;;;;;2039178;29;20039;-95
2023/04/19 06:48:39;;;;;;;17.98;11.23;;;;;;;;;;2039216;29;20027;-94
2023/04/19 06:50:00;;;;;;;16.73;10.90;;;;;;;;;;2036835;29;20043;-94
2023/04/19 06:51:23;;;;;;;18.08;10.65;;;;;;;;;;2044650;29;20047;-95
2023/04/19 06:52:44;;;;;;;18.27;10.57;;;;;;;;;;2042223;29;20038;-95
2023/04/19 06:54:06;;;;;;;16.65;10.45;;;;;;;;;;2038371;29;20040;-94
2023/04/19 06:55:27;;;;;;;19.55;11.45;;;;;;;;;;2037986;29;20565;-94
2023/04/19 06:56:52;;;;;;;19.50;10.18;;;;;;;;;;2039166;29;20106;-95
2023/04/19 06:58:13;;;;;;;18.25;10.82;;;;;;;;;;2042272;29;20040;-95
2023/04/19 06:59:38;;;;;;;14.48;9.02;;;;;;;;;;2038972;28;20040;-95
2023/04/19 07:01:00;;;;;;;18.10;11.05;;;;;;;;;;2032617;29;20032;-94
2023/04/19 07:02:21;;;;;;;22.50;11.02;;;;;;;;;;2038813;29;20071;-95
2023/04/19 07:03:44;;;;;;;18.25;10.75;;;;;;;;;;2038599;29;20466;-94
2023/04/19 07:05:06;;;;;;;14.95;10.35;;;;;;;;;;2040239;29;20039;-94
2023/04/19 07:06:30;;;;;;;;;;;;;;;;;;2044343;29;20119;-95
2023/04/19 07:07:51;;;;;;;20.15;10.70;;;;;;;;;;2034169;29;19915;-95
2023/04/19 07:09:12;;;;;;;35.72;15.00;;;;;;;;;;2033177;28;20039;-95
2023/04/19 07:10:33;;;;;;;17.55;10.15;;;;;;;;;;2040138;29;20352;-94
2023/04/19 07:11:54;;;;;;;16.80;10.27;;;;;;;;;;2031653;29;20032;-95
2023/04/19 07:13:15;;;;;;;17.27;10.40;;;;;;;;;;2041874;28;20023;-94
2023/04/19 07:14:38;;;;;;;14.85;9.25;;;;;;;;;;2036501;29;20103;-95
2023/04/19 07:16:02;;;;;;;15.63;9.98;;;;;;;;;;2033295;29;20036;-95
2023/04/19 07:17:23;;;;;;;17.58;9.48;;;;;;;;;;2039974;29;20452;-93
2023/04/19 07:18:44;;;;;;;15.18;9.30;;;;;;;;;;2038646;29;20391;-93
2023/04/19 07:20:06;;;;;;;15.50;10.07;;;;;;;;;;2024216;29;20048;-93
2023/04/19 07:21:32;;;;;;;15.80;9.13;;;;;;;;;;2035129;29;20048;-94
2023/04/19 07:23:00;;;;;;;16.80;10.23;;;;;;;;;;2039029;29;20036;-95
2023/04/19 07:24:26;;;;;;;17.58;9.55;;;;;;;;;;2041026;29;20024;-94
2023/04/19 07:25:47;;;;;;;20.45;9.38;;;;;;;;;;2033445;29;20047;-94
2023/04/19 07:27:08;;;;;;;15.77;9.85;;;;;;;;;;2037276;29;20123;-94
2023/04/19 07:28:37;;;;;;;14.63;8.95;;;;;;;;;;2037547;29;20467;-93
2023/04/19 07:32:06;;;;;;;36.53;15.60;;;;;;;;;;2018986;29;20101;-93
2023/04/19 07:33:27;;;;;;;18.48;10.18;;;;;;;;;;2032894;29;20447;-94
2023/04/19 07:34:50;;;;;;;22.92;11.75;;;;;;;;;;2030898;29;20040;-95
2023/04/19 07:36:11;;;;;;;20.20;10.55;;;;;;;;;;2033538;29;20040;-93
2023/04/19 07:37:35;;;;;;;21.35;11.80;;;;;;;;;;2032977;29;20061;-93
2023/04/19 07:43:26;;;;;;;21.17;10.63;;;;;;;;;;2034621;29;20039;-93
2023/04/19 07:45:09;;;;;;;19.15;8.68;;;;;;;;;;2028449;29;20107;-95
2023/04/19 07:51:02;;;;;;;;;;;;;;;;;;;;;
2023/04/19 08:02:17;;;;;;;13.38;8.43;;;;;;;;;;1983714;29;20038;-92
2023/04/19 08:03:59;;;;;;;14.18;8.98;;;;;;;;;;1995854;29;20106;-93
2023/04/19 08:05:20;;;;;;;12.57;8.07;;;;;;;;;;2004217;29;20034;-92
2023/04/19 08:07:13;;;;;;;19.55;9.43;;;;;;;;;;2000842;29;20110;-93
2023/04/19 08:08:26;;;;;;;17.35;8.90;;;;;;;;;;2008182;29;20045;-93
2023/04/19 08:10:14;;;;;;;14.63;8.68;;;;;;;;;;2002893;29;20026;-92
2023/04/19 08:13:49;;;;;;;13.82;8.95;;;;;;;;;;2007943;29;20033;-93
2023/04/19 08:15:18;;;;;;;17.77;9.00;;;;;;;;;;2003953;29;20030;-93
2023/04/19 08:16:39;;;;;;;16.90;9.15;;;;;;;;;;2001810;29;20156;-93
2023/04/19 08:18:08;;;;;;;17.17;9.65;;;;;;;;;;2005053;29;20034;-93
2023/04/19 08:19:30;;;;;;;15.70;9.32;;;;;;;;;;2027351;29;20035;-93
2023/04/19 08:20:51;;;;;;;16.20;9.00;;;;;;;;;;2022579;29;20040;-94
2023/04/19 08:22:12;;;;;;;14.70;8.73;;;;;;;;;;2032227;29;20051;-92
2023/04/19 08:23:49;;;;;;;16.03;9.23;;;;;;;;;;2040623;29;20047;-93
2023/04/19 08:28:00;;;;;;;;;;;;;;;;;;;;;
2023/04/19 08:31:58;;;;;;;15.48;8.48;;;;;;;;;;2045038;29;20031;-93
2023/04/19 08:33:33;;;;;;;15.27;7.97;;;;;;;;;;2038145;29;20455;-92
2023/04/19 08:37:03;;;;;;;13.68;8.68;;;;;;;;;;2031049;29;20028;-92
2023/04/19 08:38:51;;;;;;;17.52;9.05;;;;;;;;;;2030676;29;20028;-93
2023/04/19 08:40:25;;;;;;;14.27;8.95;;;;;;;;;;2033584;29;20031;-93
2023/04/19 08:46:06;;;;;;;;;;;;;;;;;;;;;
2023/04/19 08:47:28;;;;;;;12.43;7.22;;;;;;;;;;2018104;29;20128;-93
2023/04/19 08:48:51;;;;;;;14.52;8.65;;;;;;;;;;2013433;29;20030;-92
2023/04/19 08:50:12;;;;;;;13.32;8.43;;;;;;;;;;2034260;29;20038;-93
2023/04/19 08:53:55;;;;;;;;;;;;;;;;;;;;;
2023/04/19 08:57:27;;;;;;;15.35;8.27;;;;;;;;;;2034012;29;20119;-93
2023/04/19 08:58:51;;;;;;;14.45;8.82;;;;;;;;;;2026752;29;20044;-93
2023/04/19 09:00:18;;;;;;;17.40;9.45;;;;;;;;;;2024370;29;20032;-93
2023/04/19 09:01:58;;;;;;;;;;;;;;;;;;;;;
2023/04/19 09:06:15;;;;;;;;;;;;;;;;;;;;;
2023/04/19 09:12:27;;;;;;;;;;;;;;;;;;;;;
2023/04/19 09:13:54;;;;;;;15.70;8.35;;;;;;;;;;1963729;30;20048;-94
2023/04/19 09:15:44;;;;;;;35.00;15.65;;;;;;;;;;1979455;29;20042;-95
2023/04/19 09:17:22;;;;;;;21.48;9.73;;;;;;;;;;2011675;29;20493;-92
2023/04/19 09:19:02;;;;;;;15.25;8.90;;;;;;;;;;2005732;29;20079;-94
2023/04/19 09:25:06;;;;;;;14.10;8.95;;;;;;;;;;1986950;29;20035;-93
2023/04/19 09:26:30;;;;;;;17.10;8.70;;;;;;;;;;2003409;29;20068;-93
2023/04/19 09:28:15;;;;;;;14.07;8.90;;;;;;;;;;2025768;29;20040;-93
2023/04/19 09:29:57;;;;;;;15.80;9.10;;;;;;;;;;2029272;29;20040;-93
2023/04/19 09:31:35;;;;;;;;;;;;;;;;;;;;;
2023/04/19 09:32:59;;;;;;;16.67;9.45;;;;;;;;;;2009333;29;19920;-93
2023/04/19 09:34:30;;;;;;;;;;;;;;;;;;;;;
2023/04/19 09:36:02;;;;;;;16.30;9.00;;;;;;;;;;2003223;29;20053;-94
2023/04/19 09:39:53;;;;;;;;;;;;;;;;;;;;;
2023/04/19 09:41:36;;;;;;;16.55;9.38;;;;;;;;;;2016324;29;20049;-94
2023/04/19 09:45:04;;;;;;;14.82;8.88;;;;;;;;;;2009967;29;20038;-94
2023/04/19 09:46:35;;;;;;;11.57;8.38;;;;;;;;;;2017349;29;20029;-95
2023/04/19 09:48:02;;;;;;;16.38;9.45;;;;;;;;;;2002477;29;20258;-94
2023/04/19 09:49:33;;;;;;;12.35;8.05;;;;;;;;;;2005427;29;20065;-94
2023/04/19 09:50:58;;;;;;;14.40;8.68;;;;;;;;;;2015689;29;20029;-94
2023/04/19 09:52:33;;;;;;;16.48;10.52;;;;;;;;;;1987464;29;20042;-94
2023/04/19 09:53:55;;;;;;;11.35;8.50;;;;;;;;;;2000621;29;20049;-94
2023/04/19 09:55:16;;;;;;;13.97;8.10;;;;;;;;;;2005587;29;20112;-94
2023/04/19 09:56:45;;;;;;;10.80;8.35;;;;;;;;;;2013202;29;20425;-95
2023/04/19 09:58:06;;;;;;;13.00;8.20;;;;;;;;;;2009169;29;20036;-94
2023/04/19 09:59:46;;;;;;;13.00;7.93;;;;;;;;;;2022688;29;20453;-95
2023/04/19 10:01:11;;;;;;;12.35;8.30;;;;;;;;;;2016246;29;20060;-94
2023/04/19 10:02:35;;;;;;;9.85;6.82;;;;;;;;;;2007611;29;20056;-94
2023/04/19 10:03:57;;;;;;;13.63;7.57;;;;;;;;;;2013873;29;20033;-94
2023/04/19 10:05:18;;;;;;;14.80;8.35;;;;;;;;;;2013995;29;20033;-94
2023/04/19 10:06:40;;;;;;;15.13;8.23;;;;;;;;;;2031124;29;20028;-94
2023/04/19 10:08:03;;;;;;;12.85;7.70;;;;;;;;;;2023809;29;20517;-95
2023/04/19 10:09:27;;;;;;;20.67;8.68;;;;;;;;;;2025780;29;20155;-94
2023/04/19 10:11:16;;;;;;;10.45;7.03;;;;;;;;;;2038414;29;20427;-95
2023/04/19 10:12:47;;;;;;;;;;;;;;;;;;;;;
2023/04/19 10:16:02;;;;;;;12.15;7.35;;;;;;;;;;2043897;29;20056;-94
2023/04/19 10:17:39;;;;;;;11.95;7.20;;;;;;;;;;2034086;29;20036;-94
2023/04/19 10:19:15;;;;;;;13.20;7.13;;;;;;;;;;2036369;29;20032;-94
2023/04/19 10:21:06;;;;;;;13.57;6.72;;;;;;;;;;2032981;29;20583;-95
2023/04/19 10:22:50;;;;;;;11.40;6.35;;;;;;;;;;2033268;28;20416;-95
2023/04/19 10:24:22;;;;;;;;;;;;;;;;;;;;;
2023/04/19 10:25:57;;;;;;;12.43;6.90;;;;;;;;;;2041007;29;20046;-94
2023/04/19 10:27:25;;;;;;;12.27;7.70;;;;;;;;;;2033721;29;20081;-94
2023/04/19 10:28:56;;;;;;;9.73;6.70;;;;;;;;;;2032977;29;20032;-94
2023/04/19 10:30:27;;;;;;;;;;;;;;;;;;;;;
2023/04/19 10:31:50;;;;;;;14.25;7.68;;;;;;;;;;2039931;29;20028;-95
2023/04/19 10:33:31;;;;;;;12.57;7.28;;;;;;;;;;2019931;29;20068;-95
2023/04/19 10:35:00;;;;;;;10.75;6.95;;;;;;;;;;2027290;29;20033;-96
2023/04/19 10:38:05;;;;;;;13.02;6.60;;;;;;;;;;2044736;29;20332;-95
2023/04/19 10:40:07;;;;;;;13.32;7.35;;;;;;;;;;2041764;29;20027;-95
2023/04/19 10:41:57;;;;;;;24.77;10.27;;;;;;;;;;2003278;29;20528;-95
2023/04/19 10:43:18;;;;;;;14.63;7.55;;;;;;;;;;2003864;29;20057;-95
2023/04/19 10:46:43;;;;;;;10.20;6.75;;;;;;;;;;2042292;29;20042;-94
2023/04/19 10:48:32;;;;;;;14.25;7.68;;;;;;;;;;2034728;29;20035;-94
2023/04/19 10:50:05;;;;;;;;;;;;;;;;;;;;;
2023/04/19 10:51:37;;;;;;;12.07;7.30;;;;;;;;;;2041019;29;20032;-95
2023/04/19 10:53:31;;;;;;;;;;;;;;;;;;;;;
2023/04/19 10:55:15;;;;;;;;;;;;;;;;;;;;;
2023/04/19 10:58:26;;;;;;;11.60;7.43;;;;;;;;;;2036767;29;20047;-95
2023/04/19 11:00:10;;;;;;;14.65;8.07;;;;;;;;;;2034185;29;20040;-94
2023/04/19 11:01:49;;;;;;;12.40;7.72;;;;;;;;;;2034651;29;20035;-96
2023/04/19 11:03:45;;;;;;;18.35;10.48;;;;;;;;;;2017077;29;20128;-95
2023/04/19 11:05:20;;;;;;;16.88;9.02;;;;;;;;;;1993447;29;20030;-95
2023/04/19 11:06:55;;;;;;;12.90;7.13;;;;;;;;;;2001161;29;20486;-94
2023/04/19 11:08:37;;;;;;;15.50;7.55;;;;;;;;;;2041599;29;20044;-95
2023/04/19 11:12:06;;;;;;;;;;;;;;;;;;;;;
2023/04/19 11:13:52;;;;;;;17.35;10.85;;;;;;;;;;2025489;29;20032;-95
2023/04/19 11:15:34;;;;;;;13.43;7.50;;;;;;;;;;2032898;29;20040;-95
2023/04/19 11:17:04;;;;;;;13.02;7.45;;;;;;;;;;2021667;29;20033;-95
2023/04/19 11:18:48;;;;;;;12.63;7.07;;;;;;;;;;2025493;29;20039;-94
2023/04/19 11:20:35;;;;;;;;;;;;;;;;;;;;;
2023/04/19 11:22:18;;;;;;;13.48;7.43;;;;;;;;;;2029766;29;20035;-95
2023/04/19 11:23:52;;;;;;;16.50;10.50;;;;;;;;;;2010867;29;20548;-95
2023/04/19 11:25:26;;;;;;;12.40;7.18;;;;;;;;;;2024205;29;20092;-95
2023/04/19 11:27:18;;;;;;;13.63;7.63;;;;;;;;;;2020730;29;20516;-94
2023/04/19 11:28:59;;;;;;;16.05;10.40;;;;;;;;;;2024617;29;20045;-95
2023/04/19 11:30:29;;;;;;;11.93;7.20;;;;;;;;;;2016592;29;20155;-95
2023/04/19 11:44:58;;;;;;;;;;;;;;;;;;;;;
2023/04/19 11:47:03;;;;;;;13.50;7.13;;;;;;;;;;2005655;29;20037;-94
2023/04/19 11:54:30;;;;;;;8.73;6.57;;;;;;;;;;1994692;29;20464;-94
2023/04/19 11:56:00;;;;;;;18.90;6.85;;;;;;;;;;2025786;29;20032;-95
2023/04/19 11:57:30;;;;;;;9.60;6.43;;;;;;;;;;2033574;29;20039;-95
2023/04/19 11:58:59;;;;;;;12.77;7.68;;;;;;;;;;2032522;29;20029;-94
2023/04/19 12:00:44;;;;;;;13.82;6.93;;;;;;;;;;2031399;29;20484;-94
2023/04/19 12:02:05;;;;;;;15.23;8.10;;;;;;;;;;2032545;29;20032;-94
2023/04/19 12:03:36;;;;;;;13.13;7.40;;;;;;;;;;2032859;29;20032;-94
2023/04/19 12:05:08;;;;;;;9.43;6.72;;;;;;;;;;2030851;29;20067;-94
2023/04/19 12:06:32;;;;;;;10.43;6.70;;;;;;;;;;2033987;29;20148;-94
2023/04/19 12:07:57;;;;;;;18.33;8.45;;;;;;;;;;2041341;29;20031;-94
2023/04/19 12:09:19;;;;;;;13.43;6.95;;;;;;;;;;2038528;29;20052;-95
2023/04/19 12:10:54;;;;;;;11.48;7.43;;;;;;;;;;2030038;29;20036;-93
2023/04/19 12:12:30;;;;;;;19.02;8.60;;;;;;;;;;2032336;29;20123;-94
2023/04/19 12:14:07;;;;;;;21.27;12.73;;;;;;;;;;2030369;29;20038;-94
2023/04/19 12:15:44;;;;;;;12.50;6.88;;;;;;;;;;2031684;29;20087;-94
2023/04/19 12:17:14;;;;;;;15.48;6.97;;;;;;;;;;2035844;29;20032;-95
2023/04/19 12:19:01;;;;;;;12.52;7.30;;;;;;;;;;2032542;29;20448;-94
2023/04/19 12:20:28;;;;;;;13.52;6.72;;;;;;;;;;2032591;29;20032;-94
2023/04/19 12:21:50;;;;;;;13.18;7.90;;;;;;;;;;2028947;29;20040;-95
2023/04/19 12:23:14;;;;;;;11.32;7.72;;;;;;;;;;2032911;29;20055;-95
2023/04/19 12:24:38;;;;;;;11.77;6.80;;;;;;;;;;2023527;29;20040;-95
2023/04/19 12:26:06;;;;;;;11.25;7.32;;;;;;;;;;2031508;29;20024;-94
2023/04/19 12:27:28;;;;;;;10.60;6.05;;;;;;;;;;2031366;29;20067;-95
2023/04/19 12:28:49;;;;;;;12.77;7.25;;;;;;;;;;2031633;29;20032;-94
2023/04/19 12:30:13;;;;;;;11.05;6.57;;;;;;;;;;2034607;29;20039;-95
2023/04/19 12:31:44;;;;;;;;;;;;;;;;;;;;;
2023/04/19 12:33:08;;;;;;;11.85;6.35;;;;;;;;;;2033147;29;20055;-95
2023/04/19 12:34:32;;;;;;;11.80;6.93;;;;;;;;;;2024814;29;20115;-94
2023/04/19 12:36:00;;;;;;;9.32;6.45;;;;;;;;;;2032046;29;20024;-95
2023/04/19 12:37:31;;;;;;;;;;;;;;;;;;;;;
2023/04/19 12:38:55;;;;;;;9.82;6.32;;;;;;;;;;2033008;29;20036;-95